sensor_id;sensor_type;location;lat;lon;timestamp;temperature;humidity
10133;DHT22;5106;50.926;7.080;2022-10-17T00:11:19;15.60;87.40
10133;DHT22;5106;50.926;7.080;2022-10-17T00:13:47;15.60;87.50
10133;DHT22;5106;50.926;7.080;2022-10-17T00:16:13;15.60;87.40
10133;DHT22;5106;50.926;7.080;2022-10-17T00:18:39;15.60;87.40
10133;DHT22;5106;50.926;7.080;2022-10-17T00:21:05;15.60;87.50
10133;DHT22;5106;50.926;7.080;2022-10-17T00:23:32;15.60;87.50
10133;DHT22;5106;50.926;7.080;2022-10-17T00:26:03;15.60;87.50
10133;DHT22;5106;50.926;7.080;2022-10-17T00:28:29;15.60;87.50
10133;DHT22;5106;50.926;7.080;2022-10-17T00:31:00;15.60;87.40
10133;DHT22;5106;50.926;7.080;2022-10-17T00:33:27;15.60;87.40
10133;DHT22;5106;50.926;7.080;2022-10-17T00:36:23;15.60;87.40
10133;DHT22;5106;50.926;7.080;2022-10-17T00:38:53;15.50;87.50
10133;DHT22;5106;50.926;7.080;2022-10-17T00:41:24;15.50;87.50
10133;DHT22;5106;50.926;7.080;2022-10-17T01:04:04;15.40;87.50
10133;DHT22;5106;50.926;7.080;2022-10-17T01:06:29;15.40;87.30
10133;DHT22;5106;50.926;7.080;2022-10-17T01:08:55;15.40;87.40
10133;DHT22;5106;50.926;7.080;2022-10-17T01:11:49;15.40;87.40
10133;DHT22;5106;50.926;7.080;2022-10-17T01:14:29;15.40;87.50
10133;DHT22;5106;50.926;7.080;2022-10-17T01:22:48;15.30;87.50
10133;DHT22;5106;50.926;7.080;2022-10-17T01:28:30;15.30;87.60
10133;DHT22;5106;50.926;7.080;2022-10-17T01:31:11;15.30;87.70
10133;DHT22;5106;50.926;7.080;2022-10-17T01:34:17;15.30;87.70
10133;DHT22;5106;50.926;7.080;2022-10-17T01:36:50;15.30;87.60
10133;DHT22;5106;50.926;7.080;2022-10-17T01:59:05;15.10;87.50
10133;DHT22;5106;50.926;7.080;2022-10-17T02:01:31;15.10;87.50
10133;DHT22;5106;50.926;7.080;2022-10-17T02:03:58;15.10;87.50
10133;DHT22;5106;50.926;7.080;2022-10-17T02:06:25;15.10;87.70
10133;DHT22;5106;50.926;7.080;2022-10-17T02:08:50;15.10;87.60
10133;DHT22;5106;50.926;7.080;2022-10-17T02:11:24;15.10;87.60
10133;DHT22;5106;50.926;7.080;2022-10-17T02:16:39;15.10;87.40
10133;DHT22;5106;50.926;7.080;2022-10-17T02:22:34;15.10;87.40
10133;DHT22;5106;50.926;7.080;2022-10-17T02:25:59;15.10;87.40
10133;DHT22;5106;50.926;7.080;2022-10-17T02:28:25;15.10;87.40
10133;DHT22;5106;50.926;7.080;2022-10-17T02:31:03;15.10;87.50
10133;DHT22;5106;50.926;7.080;2022-10-17T02:33:43;15.20;87.40
10133;DHT22;5106;50.926;7.080;2022-10-17T02:36:14;15.20;87.40
10133;DHT22;5106;50.926;7.080;2022-10-17T02:38:42;15.10;87.50
10133;DHT22;5106;50.926;7.080;2022-10-17T02:41:11;15.20;87.30
10133;DHT22;5106;50.926;7.080;2022-10-17T02:43:38;15.10;87.40
10133;DHT22;5106;50.926;7.080;2022-10-17T02:46:05;15.20;87.30
10133;DHT22;5106;50.926;7.080;2022-10-17T02:48:46;15.20;87.40
10133;DHT22;5106;50.926;7.080;2022-10-17T02:51:19;15.20;87.40
10133;DHT22;5106;50.926;7.080;2022-10-17T02:56:54;15.20;87.40
10133;DHT22;5106;50.926;7.080;2022-10-17T02:59:24;15.20;87.40
10133;DHT22;5106;50.926;7.080;2022-10-17T03:01:50;15.20;87.50
10133;DHT22;5106;50.926;7.080;2022-10-17T03:04:16;15.30;87.50
10133;DHT22;5106;50.926;7.080;2022-10-17T03:06:44;15.30;87.50
10133;DHT22;5106;50.926;7.080;2022-10-17T03:09:10;15.30;87.60
10133;DHT22;5106;50.926;7.080;2022-10-17T03:11:37;15.30;87.60
10133;DHT22;5106;50.926;7.080;2022-10-17T03:14:03;15.40;87.60
10133;DHT22;5106;50.926;7.080;2022-10-17T03:16:28;15.40;87.60
10133;DHT22;5106;50.926;7.080;2022-10-17T03:18:54;15.40;87.60
10133;DHT22;5106;50.926;7.080;2022-10-17T03:21:19;15.50;87.50
10133;DHT22;5106;50.926;7.080;2022-10-17T03:23:45;15.50;87.40
10133;DHT22;5106;50.926;7.080;2022-10-17T03:26:11;15.50;87.40
10133;DHT22;5106;50.926;7.080;2022-10-17T03:28:37;15.60;87.40
10133;DHT22;5106;50.926;7.080;2022-10-17T03:31:11;15.60;87.40
10133;DHT22;5106;50.926;7.080;2022-10-17T03:33:37;15.60;87.30
10133;DHT22;5106;50.926;7.080;2022-10-17T03:36:11;15.60;87.30
10133;DHT22;5106;50.926;7.080;2022-10-17T03:38:38;15.60;87.20
10133;DHT22;5106;50.926;7.080;2022-10-17T03:41:04;15.60;87.20
10133;DHT22;5106;50.926;7.080;2022-10-17T03:43:30;15.60;87.00
10133;DHT22;5106;50.926;7.080;2022-10-17T03:45:57;15.60;86.90
10133;DHT22;5106;50.926;7.080;2022-10-17T03:48:27;15.60;86.70
10133;DHT22;5106;50.926;7.080;2022-10-17T03:51:01;15.60;86.80
10133;DHT22;5106;50.926;7.080;2022-10-17T03:53:28;15.60;86.70
10133;DHT22;5106;50.926;7.080;2022-10-17T03:55:56;15.60;86.80
10133;DHT22;5106;50.926;7.080;2022-10-17T03:58:32;15.60;86.80
10133;DHT22;5106;50.926;7.080;2022-10-17T04:01:05;15.60;86.70
10133;DHT22;5106;50.926;7.080;2022-10-17T04:03:32;15.60;86.70
10133;DHT22;5106;50.926;7.080;2022-10-17T04:06:02;15.60;86.80
10133;DHT22;5106;50.926;7.080;2022-10-17T04:08:29;15.60;86.80
10133;DHT22;5106;50.926;7.080;2022-10-17T04:10:59;15.50;86.70
10133;DHT22;5106;50.926;7.080;2022-10-17T04:13:25;15.50;86.70
10133;DHT22;5106;50.926;7.080;2022-10-17T04:15:55;15.50;86.70
10133;DHT22;5106;50.926;7.080;2022-10-17T04:18:21;15.50;86.80
10133;DHT22;5106;50.926;7.080;2022-10-17T04:20:46;15.50;86.70
10133;DHT22;5106;50.926;7.080;2022-10-17T04:23:12;15.50;86.80
10133;DHT22;5106;50.926;7.080;2022-10-17T04:25:38;15.50;86.80
10133;DHT22;5106;50.926;7.080;2022-10-17T04:28:04;15.50;86.80
10133;DHT22;5106;50.926;7.080;2022-10-17T04:30:31;15.50;86.80
10133;DHT22;5106;50.926;7.080;2022-10-17T04:32:57;15.50;86.80
10133;DHT22;5106;50.926;7.080;2022-10-17T04:35:23;15.50;86.80
10133;DHT22;5106;50.926;7.080;2022-10-17T04:37:48;15.50;86.70
10133;DHT22;5106;50.926;7.080;2022-10-17T04:40:14;15.50;86.70
10133;DHT22;5106;50.926;7.080;2022-10-17T04:42:43;15.50;86.60
10133;DHT22;5106;50.926;7.080;2022-10-17T04:45:09;15.50;86.50
10133;DHT22;5106;50.926;7.080;2022-10-17T04:47:34;15.50;86.60
10133;DHT22;5106;50.926;7.080;2022-10-17T04:50:00;15.50;86.70
10133;DHT22;5106;50.926;7.080;2022-10-17T04:52:26;15.40;86.60
10133;DHT22;5106;50.926;7.080;2022-10-17T04:54:52;15.40;86.60
10133;DHT22;5106;50.926;7.080;2022-10-17T04:57:18;15.40;86.60
10133;DHT22;5106;50.926;7.080;2022-10-17T04:59:44;15.40;86.60
10133;DHT22;5106;50.926;7.080;2022-10-17T05:02:21;15.40;86.70
10133;DHT22;5106;50.926;7.080;2022-10-17T05:04:47;15.30;86.60
10133;DHT22;5106;50.926;7.080;2022-10-17T05:07:13;15.30;86.50
10133;DHT22;5106;50.926;7.080;2022-10-17T05:09:38;15.30;86.50
10133;DHT22;5106;50.926;7.080;2022-10-17T05:12:04;15.30;86.50
10133;DHT22;5106;50.926;7.080;2022-10-17T05:14:30;15.30;86.60
10133;DHT22;5106;50.926;7.080;2022-10-17T05:16:59;15.30;86.60
10133;DHT22;5106;50.926;7.080;2022-10-17T05:19:24;15.30;86.70
10133;DHT22;5106;50.926;7.080;2022-10-17T05:21:50;15.30;86.60
10133;DHT22;5106;50.926;7.080;2022-10-17T05:24:15;15.30;86.70
10133;DHT22;5106;50.926;7.080;2022-10-17T05:26:41;15.30;86.70
10133;DHT22;5106;50.926;7.080;2022-10-17T05:29:07;15.30;86.70
10133;DHT22;5106;50.926;7.080;2022-10-17T05:31:32;15.30;86.70
10133;DHT22;5106;50.926;7.080;2022-10-17T05:34:02;15.30;86.70
10133;DHT22;5106;50.926;7.080;2022-10-17T05:36:28;15.30;86.70
10133;DHT22;5106;50.926;7.080;2022-10-17T05:38:54;15.30;86.80
10133;DHT22;5106;50.926;7.080;2022-10-17T05:41:20;15.30;86.80
10133;DHT22;5106;50.926;7.080;2022-10-17T05:43:46;15.30;86.90
10133;DHT22;5106;50.926;7.080;2022-10-17T05:46:11;15.40;86.80
10133;DHT22;5106;50.926;7.080;2022-10-17T05:48:37;15.40;86.80
10133;DHT22;5106;50.926;7.080;2022-10-17T05:51:09;15.40;86.80
10133;DHT22;5106;50.926;7.080;2022-10-17T05:53:37;15.40;86.80
10133;DHT22;5106;50.926;7.080;2022-10-17T05:56:05;15.40;86.80
10133;DHT22;5106;50.926;7.080;2022-10-17T05:58:32;15.40;86.70
10133;DHT22;5106;50.926;7.080;2022-10-17T06:01:04;15.40;86.70
10133;DHT22;5106;50.926;7.080;2022-10-17T06:03:30;15.40;86.70
10133;DHT22;5106;50.926;7.080;2022-10-17T06:06:02;15.40;86.60
10133;DHT22;5106;50.926;7.080;2022-10-17T06:08:28;15.40;86.60
10133;DHT22;5106;50.926;7.080;2022-10-17T06:10:54;15.40;86.60
10133;DHT22;5106;50.926;7.080;2022-10-17T06:13:19;15.40;86.60
10133;DHT22;5106;50.926;7.080;2022-10-17T06:15:45;15.40;86.60
10133;DHT22;5106;50.926;7.080;2022-10-17T06:18:11;15.40;86.60
10133;DHT22;5106;50.926;7.080;2022-10-17T06:20:37;15.50;86.60
10133;DHT22;5106;50.926;7.080;2022-10-17T06:23:02;15.50;86.70
10133;DHT22;5106;50.926;7.080;2022-10-17T06:25:34;15.50;86.60
10133;DHT22;5106;50.926;7.080;2022-10-17T06:28:00;15.50;86.50
10133;DHT22;5106;50.926;7.080;2022-10-17T06:30:26;15.60;86.50
10133;DHT22;5106;50.926;7.080;2022-10-17T06:32:52;15.60;86.50
10133;DHT22;5106;50.926;7.080;2022-10-17T06:35:21;15.70;86.40
10133;DHT22;5106;50.926;7.080;2022-10-17T06:37:46;15.70;86.30
10133;DHT22;5106;50.926;7.080;2022-10-17T06:40:13;15.70;86.30
10133;DHT22;5106;50.926;7.080;2022-10-17T06:42:41;15.80;86.30
10133;DHT22;5106;50.926;7.080;2022-10-17T06:45:08;15.80;86.20
10133;DHT22;5106;50.926;7.080;2022-10-17T06:47:36;15.80;86.20
10133;DHT22;5106;50.926;7.080;2022-10-17T06:50:02;15.90;86.10
10133;DHT22;5106;50.926;7.080;2022-10-17T06:52:27;15.90;86.10
10133;DHT22;5106;50.926;7.080;2022-10-17T06:54:53;16.00;86.00
10133;DHT22;5106;50.926;7.080;2022-10-17T06:57:18;16.00;85.90
10133;DHT22;5106;50.926;7.080;2022-10-17T06:59:44;16.00;85.90
10133;DHT22;5106;50.926;7.080;2022-10-17T07:02:10;16.10;85.80
10133;DHT22;5106;50.926;7.080;2022-10-17T07:04:36;16.20;85.80
10133;DHT22;5106;50.926;7.080;2022-10-17T07:07:02;16.20;85.80
10133;DHT22;5106;50.926;7.080;2022-10-17T07:09:28;16.30;85.50
10133;DHT22;5106;50.926;7.080;2022-10-17T07:11:54;16.40;85.50
10133;DHT22;5106;50.926;7.080;2022-10-17T07:14:39;16.50;85.40
10133;DHT22;5106;50.926;7.080;2022-10-17T07:17:49;16.60;85.30
10133;DHT22;5106;50.926;7.080;2022-10-17T07:23:23;16.80;85.00
10133;DHT22;5106;50.926;7.080;2022-10-17T07:25:48;16.90;84.80
10133;DHT22;5106;50.926;7.080;2022-10-17T07:28:14;16.90;84.70
10133;DHT22;5106;50.926;7.080;2022-10-17T07:30:40;17.00;84.60
10133;DHT22;5106;50.926;7.080;2022-10-17T07:33:06;17.10;84.50
10133;DHT22;5106;50.926;7.080;2022-10-17T07:35:32;17.10;84.50
10133;DHT22;5106;50.926;7.080;2022-10-17T07:37:58;17.10;84.40
10133;DHT22;5106;50.926;7.080;2022-10-17T07:40:24;17.20;84.20
10133;DHT22;5106;50.926;7.080;2022-10-17T07:42:49;17.20;84.10
10133;DHT22;5106;50.926;7.080;2022-10-17T07:45:15;17.20;84.20
10133;DHT22;5106;50.926;7.080;2022-10-17T07:47:41;17.20;84.30
10133;DHT22;5106;50.926;7.080;2022-10-17T07:50:07;17.20;84.20
10133;DHT22;5106;50.926;7.080;2022-10-17T07:52:33;17.30;84.20
10133;DHT22;5106;50.926;7.080;2022-10-17T07:54:58;17.30;84.20
10133;DHT22;5106;50.926;7.080;2022-10-17T07:57:24;17.40;84.10
10133;DHT22;5106;50.926;7.080;2022-10-17T07:59:50;17.40;84.10
10133;DHT22;5106;50.926;7.080;2022-10-17T08:02:22;17.40;83.90
10133;DHT22;5106;50.926;7.080;2022-10-17T08:04:48;17.50;83.90
10133;DHT22;5106;50.926;7.080;2022-10-17T08:07:14;17.60;83.90
10133;DHT22;5106;50.926;7.080;2022-10-17T08:09:41;17.60;83.90
10133;DHT22;5106;50.926;7.080;2022-10-17T08:12:06;17.70;83.70
10133;DHT22;5106;50.926;7.080;2022-10-17T08:14:32;17.70;83.60
10133;DHT22;5106;50.926;7.080;2022-10-17T08:16:57;17.80;83.40
10133;DHT22;5106;50.926;7.080;2022-10-17T08:19:23;17.80;83.20
10133;DHT22;5106;50.926;7.080;2022-10-17T08:21:49;17.90;83.20
10133;DHT22;5106;50.926;7.080;2022-10-17T08:24:16;18.00;83.30
10133;DHT22;5106;50.926;7.080;2022-10-17T08:26:41;18.00;83.20
10133;DHT22;5106;50.926;7.080;2022-10-17T08:29:12;18.00;83.30
10133;DHT22;5106;50.926;7.080;2022-10-17T08:31:38;18.10;83.20
10133;DHT22;5106;50.926;7.080;2022-10-17T08:34:04;18.10;83.00
10133;DHT22;5106;50.926;7.080;2022-10-17T08:36:29;18.20;82.80
10133;DHT22;5106;50.926;7.080;2022-10-17T08:38:55;18.20;82.80
10133;DHT22;5106;50.926;7.080;2022-10-17T08:47:41;18.30;82.80
10133;DHT22;5106;50.926;7.080;2022-10-17T08:50:21;18.40;82.80
10133;DHT22;5106;50.926;7.080;2022-10-17T08:52:54;18.50;82.70
10133;DHT22;5106;50.926;7.080;2022-10-17T08:55:44;18.60;82.40
10133;DHT22;5106;50.926;7.080;2022-10-17T08:58:22;18.60;82.30
10133;DHT22;5106;50.926;7.080;2022-10-17T09:06:33;18.80;82.00
10133;DHT22;5106;50.926;7.080;2022-10-17T09:14:20;18.90;81.60
10133;DHT22;5106;50.926;7.080;2022-10-17T09:19:39;19.00;81.80
10133;DHT22;5106;50.926;7.080;2022-10-17T09:22:14;19.00;81.70
10133;DHT22;5106;50.926;7.080;2022-10-17T09:25:08;19.10;81.80
10133;DHT22;5106;50.926;7.080;2022-10-17T09:27:39;19.20;81.90
10133;DHT22;5106;50.926;7.080;2022-10-17T09:30:33;19.20;81.90
10133;DHT22;5106;50.926;7.080;2022-10-17T09:33:08;19.30;81.30
10133;DHT22;5106;50.926;7.080;2022-10-17T09:35:35;19.40;81.10
10133;DHT22;5106;50.926;7.080;2022-10-17T09:38:01;19.40;81.00
10133;DHT22;5106;50.926;7.080;2022-10-17T09:40:31;19.40;81.10
10133;DHT22;5106;50.926;7.080;2022-10-17T09:43:00;19.50;81.00
10133;DHT22;5106;50.926;7.080;2022-10-17T09:45:27;19.50;80.70
10133;DHT22;5106;50.926;7.080;2022-10-17T09:50:34;19.70;80.50
10133;DHT22;5106;50.926;7.080;2022-10-17T09:53:16;19.70;80.50
10133;DHT22;5106;50.926;7.080;2022-10-17T09:55:46;19.70;80.20
10133;DHT22;5106;50.926;7.080;2022-10-17T09:58:15;19.70;80.30
10133;DHT22;5106;50.926;7.080;2022-10-17T10:00:42;19.70;80.20
10133;DHT22;5106;50.926;7.080;2022-10-17T10:05:56;19.80;80.40
10133;DHT22;5106;50.926;7.080;2022-10-17T10:08:35;19.80;80.80
10133;DHT22;5106;50.926;7.080;2022-10-17T10:11:07;19.90;81.10
10133;DHT22;5106;50.926;7.080;2022-10-17T10:13:33;20.00;80.70
10133;DHT22;5106;50.926;7.080;2022-10-17T10:16:22;20.10;80.70
10133;DHT22;5106;50.926;7.080;2022-10-17T10:18:49;20.20;80.20
10133;DHT22;5106;50.926;7.080;2022-10-17T10:21:20;20.30;80.00
10133;DHT22;5106;50.926;7.080;2022-10-17T10:26:44;20.40;79.70
10133;DHT22;5106;50.926;7.080;2022-10-17T10:31:46;20.50;78.70
10133;DHT22;5106;50.926;7.080;2022-10-17T10:34:20;20.50;79.00
10133;DHT22;5106;50.926;7.080;2022-10-17T10:36:57;20.50;79.80
10133;DHT22;5106;50.926;7.080;2022-10-17T10:39:39;20.50;79.70
10133;DHT22;5106;50.926;7.080;2022-10-17T10:42:16;20.50;79.70
10133;DHT22;5106;50.926;7.080;2022-10-17T10:44:42;20.50;79.60
10133;DHT22;5106;50.926;7.080;2022-10-17T10:49:40;20.50;78.90
10133;DHT22;5106;50.926;7.080;2022-10-17T10:52:07;20.50;79.30
10133;DHT22;5106;50.926;7.080;2022-10-17T10:54:42;20.40;79.40
10133;DHT22;5106;50.926;7.080;2022-10-17T10:57:16;20.40;79.80
10133;DHT22;5106;50.926;7.080;2022-10-17T11:02:40;20.40;78.90
10133;DHT22;5106;50.926;7.080;2022-10-17T11:07:59;20.40;79.10
10133;DHT22;5106;50.926;7.080;2022-10-17T11:10:57;20.40;79.50
10133;DHT22;5106;50.926;7.080;2022-10-17T11:13:33;20.40;79.40
10133;DHT22;5106;50.926;7.080;2022-10-17T11:16:24;20.40;79.80
10133;DHT22;5106;50.926;7.080;2022-10-17T11:19:31;20.40;79.70
10133;DHT22;5106;50.926;7.080;2022-10-17T11:22:20;20.40;79.70
10133;DHT22;5106;50.926;7.080;2022-10-17T11:24:53;20.30;80.00
10133;DHT22;5106;50.926;7.080;2022-10-17T11:27:22;20.30;80.10
10133;DHT22;5106;50.926;7.080;2022-10-17T11:29:49;20.30;80.30
10133;DHT22;5106;50.926;7.080;2022-10-17T11:32:36;20.30;80.20
10133;DHT22;5106;50.926;7.080;2022-10-17T11:35:07;20.40;80.00
10133;DHT22;5106;50.926;7.080;2022-10-17T11:37:42;20.40;80.10
10133;DHT22;5106;50.926;7.080;2022-10-17T11:40:16;20.40;80.20
10133;DHT22;5106;50.926;7.080;2022-10-17T11:43:43;20.40;80.30
10133;DHT22;5106;50.926;7.080;2022-10-17T11:45:54;20.40;80.20
10133;DHT22;5106;50.926;7.080;2022-10-17T11:48:40;20.40;80.30
10133;DHT22;5106;50.926;7.080;2022-10-17T11:51:07;20.40;80.10
10133;DHT22;5106;50.926;7.080;2022-10-17T11:56:18;20.50;80.20
10133;DHT22;5106;50.926;7.080;2022-10-17T11:58:59;20.50;80.10
10133;DHT22;5106;50.926;7.080;2022-10-17T12:07:04;20.50;79.90
10133;DHT22;5106;50.926;7.080;2022-10-17T12:12:03;20.60;80.10
10133;DHT22;5106;50.926;7.080;2022-10-17T12:14:44;20.60;80.00
10133;DHT22;5106;50.926;7.080;2022-10-17T12:17:34;20.60;80.40
10133;DHT22;5106;50.926;7.080;2022-10-17T12:25:23;20.70;80.30
10133;DHT22;5106;50.926;7.080;2022-10-17T12:28:08;20.70;80.40
10133;DHT22;5106;50.926;7.080;2022-10-17T12:30:35;20.60;80.70
10133;DHT22;5106;50.926;7.080;2022-10-17T12:35:29;20.50;81.10
10133;DHT22;5106;50.926;7.080;2022-10-17T12:45:54;20.40;82.40
10133;DHT22;5106;50.926;7.080;2022-10-17T12:51:19;20.30;82.70
10133;DHT22;5106;50.926;7.080;2022-10-17T12:53:55;20.30;82.80
10133;DHT22;5106;50.926;7.080;2022-10-17T12:56:45;20.30;82.70
10133;DHT22;5106;50.926;7.080;2022-10-17T12:59:23;20.20;82.80
10133;DHT22;5106;50.926;7.080;2022-10-17T13:01:52;20.20;83.00
10133;DHT22;5106;50.926;7.080;2022-10-17T13:04:19;20.20;83.00
10133;DHT22;5106;50.926;7.080;2022-10-17T13:06:52;20.30;82.90
10133;DHT22;5106;50.926;7.080;2022-10-17T13:11:50;20.30;83.30
10133;DHT22;5106;50.926;7.080;2022-10-17T13:14:19;20.30;83.30
10133;DHT22;5106;50.926;7.080;2022-10-17T13:16:57;20.30;83.10
10133;DHT22;5106;50.926;7.080;2022-10-17T13:22:12;20.30;82.70
10133;DHT22;5106;50.926;7.080;2022-10-17T13:24:40;20.30;82.60
10133;DHT22;5106;50.926;7.080;2022-10-17T13:27:25;20.30;82.50
10133;DHT22;5106;50.926;7.080;2022-10-17T13:29:51;20.30;82.50
10133;DHT22;5106;50.926;7.080;2022-10-17T13:32:17;20.20;82.50
10133;DHT22;5106;50.926;7.080;2022-10-17T13:34:42;20.30;82.60
10133;DHT22;5106;50.926;7.080;2022-10-17T13:37:12;20.20;82.60
10133;DHT22;5106;50.926;7.080;2022-10-17T13:39:43;20.20;82.80
10133;DHT22;5106;50.926;7.080;2022-10-17T13:42:23;20.20;83.00
10133;DHT22;5106;50.926;7.080;2022-10-17T13:44:49;20.20;83.20
10133;DHT22;5106;50.926;7.080;2022-10-17T13:47:23;20.20;83.40
10133;DHT22;5106;50.926;7.080;2022-10-17T13:49:49;20.20;83.50
10133;DHT22;5106;50.926;7.080;2022-10-17T13:52:21;20.20;83.50
10133;DHT22;5106;50.926;7.080;2022-10-17T13:54:49;20.20;83.60
10133;DHT22;5106;50.926;7.080;2022-10-17T13:57:26;20.20;83.60
10133;DHT22;5106;50.926;7.080;2022-10-17T14:00:05;20.20;83.30
10133;DHT22;5106;50.926;7.080;2022-10-17T14:02:33;20.20;80.80
10133;DHT22;5106;50.926;7.080;2022-10-17T14:05:13;20.30;80.90
10133;DHT22;5106;50.926;7.080;2022-10-17T14:07:55;20.40;80.10
10133;DHT22;5106;50.926;7.080;2022-10-17T14:12:50;20.60;79.10
10133;DHT22;5106;50.926;7.080;2022-10-17T14:15:17;20.70;78.80
10133;DHT22;5106;50.926;7.080;2022-10-17T14:17:44;20.70;78.40
10133;DHT22;5106;50.926;7.080;2022-10-17T14:20:18;20.80;78.20
10133;DHT22;5106;50.926;7.080;2022-10-17T14:22:44;20.90;77.70
10133;DHT22;5106;50.926;7.080;2022-10-17T14:25:34;21.00;77.20
10133;DHT22;5106;50.926;7.080;2022-10-17T14:30:47;21.10;76.70
10133;DHT22;5106;50.926;7.080;2022-10-17T14:33:23;21.20;77.00
10133;DHT22;5106;50.926;7.080;2022-10-17T14:35:52;21.20;76.30
10133;DHT22;5106;50.926;7.080;2022-10-17T14:38:19;21.20;76.90
10133;DHT22;5106;50.926;7.080;2022-10-17T14:40:57;21.20;77.10
10133;DHT22;5106;50.926;7.080;2022-10-17T14:43:26;21.20;77.40
10133;DHT22;5106;50.926;7.080;2022-10-17T14:45:56;21.20;77.40
10133;DHT22;5106;50.926;7.080;2022-10-17T14:48:23;21.20;77.60
10133;DHT22;5106;50.926;7.080;2022-10-17T14:51:12;21.20;77.20
10133;DHT22;5106;50.926;7.080;2022-10-17T14:54:15;21.10;77.00
10133;DHT22;5106;50.926;7.080;2022-10-17T14:56:49;21.10;76.60
10133;DHT22;5106;50.926;7.080;2022-10-17T14:59:14;21.10;76.80
10133;DHT22;5106;50.926;7.080;2022-10-17T15:01:43;21.10;77.30
10133;DHT22;5106;50.926;7.080;2022-10-17T15:04:09;21.10;76.70
10133;DHT22;5106;50.926;7.080;2022-10-17T15:06:35;21.00;76.70
10133;DHT22;5106;50.926;7.080;2022-10-17T15:09:01;21.00;76.40
10133;DHT22;5106;50.926;7.080;2022-10-17T15:11:27;21.00;76.70
10133;DHT22;5106;50.926;7.080;2022-10-17T15:13:53;21.00;76.40
10133;DHT22;5106;50.926;7.080;2022-10-17T15:16:24;21.00;76.50
10133;DHT22;5106;50.926;7.080;2022-10-17T15:18:50;21.00;77.30
10133;DHT22;5106;50.926;7.080;2022-10-17T15:21:20;21.00;76.80
10133;DHT22;5106;50.926;7.080;2022-10-17T15:23:46;20.90;77.10
10133;DHT22;5106;50.926;7.080;2022-10-17T15:26:18;20.90;77.30
10133;DHT22;5106;50.926;7.080;2022-10-17T15:28:44;20.80;77.50
10133;DHT22;5106;50.926;7.080;2022-10-17T15:31:11;20.80;77.50
10133;DHT22;5106;50.926;7.080;2022-10-17T15:33:37;20.70;77.70
10133;DHT22;5106;50.926;7.080;2022-10-17T15:36:03;20.70;77.90
10133;DHT22;5106;50.926;7.080;2022-10-17T15:38:29;20.60;78.10
10133;DHT22;5106;50.926;7.080;2022-10-17T15:40:54;20.60;78.00
10133;DHT22;5106;50.926;7.080;2022-10-17T15:43:20;20.60;77.90
10133;DHT22;5106;50.926;7.080;2022-10-17T15:45:46;20.60;78.50
10133;DHT22;5106;50.926;7.080;2022-10-17T15:48:19;20.50;79.10
10133;DHT22;5106;50.926;7.080;2022-10-17T15:50:46;20.50;79.80
10133;DHT22;5106;50.926;7.080;2022-10-17T15:53:12;20.40;80.00
10133;DHT22;5106;50.926;7.080;2022-10-17T15:55:38;20.30;79.50
10133;DHT22;5106;50.926;7.080;2022-10-17T15:58:03;20.30;79.20
10133;DHT22;5106;50.926;7.080;2022-10-17T16:00:29;20.30;79.10
10133;DHT22;5106;50.926;7.080;2022-10-17T16:02:55;20.30;79.20
10133;DHT22;5106;50.926;7.080;2022-10-17T16:05:22;20.30;79.20
10133;DHT22;5106;50.926;7.080;2022-10-17T16:07:50;20.30;79.00
10133;DHT22;5106;50.926;7.080;2022-10-17T16:10:17;20.20;78.90
10133;DHT22;5106;50.926;7.080;2022-10-17T16:12:42;20.30;78.80
10133;DHT22;5106;50.926;7.080;2022-10-17T16:17:47;20.30;78.90
10133;DHT22;5106;50.926;7.080;2022-10-17T16:20:13;20.30;78.60
10133;DHT22;5106;50.926;7.080;2022-10-17T16:22:39;20.30;78.60
10133;DHT22;5106;50.926;7.080;2022-10-17T16:25:19;20.30;78.30
10133;DHT22;5106;50.926;7.080;2022-10-17T16:27:46;20.30;78.30
10133;DHT22;5106;50.926;7.080;2022-10-17T16:30:13;20.40;78.20
10133;DHT22;5106;50.926;7.080;2022-10-17T16:32:39;20.40;77.80
10133;DHT22;5106;50.926;7.080;2022-10-17T16:35:05;20.40;77.90
10133;DHT22;5106;50.926;7.080;2022-10-17T16:37:31;20.40;77.90
10133;DHT22;5106;50.926;7.080;2022-10-17T16:39:57;20.40;78.00
10133;DHT22;5106;50.926;7.080;2022-10-17T16:42:26;20.40;78.40
10133;DHT22;5106;50.926;7.080;2022-10-17T16:44:51;20.40;78.80
10133;DHT22;5106;50.926;7.080;2022-10-17T16:47:18;20.20;79.50
10133;DHT22;5106;50.926;7.080;2022-10-17T16:49:43;20.10;79.90
10133;DHT22;5106;50.926;7.080;2022-10-17T16:52:09;20.00;80.70
10133;DHT22;5106;50.926;7.080;2022-10-17T16:54:35;19.90;80.90
10133;DHT22;5106;50.926;7.080;2022-10-17T16:57:01;19.80;81.20
10133;DHT22;5106;50.926;7.080;2022-10-17T16:59:27;19.80;81.50
10133;DHT22;5106;50.926;7.080;2022-10-17T17:01:53;19.70;81.70
10133;DHT22;5106;50.926;7.080;2022-10-17T17:04:19;19.60;81.90
10133;DHT22;5106;50.926;7.080;2022-10-17T17:06:44;19.60;82.00
10133;DHT22;5106;50.926;7.080;2022-10-17T17:09:10;19.50;82.20
10133;DHT22;5106;50.926;7.080;2022-10-17T17:11:36;19.40;82.30
10133;DHT22;5106;50.926;7.080;2022-10-17T17:14:03;19.30;82.50
10133;DHT22;5106;50.926;7.080;2022-10-17T17:16:30;19.30;82.70
10133;DHT22;5106;50.926;7.080;2022-10-17T17:18:59;19.20;82.70
10133;DHT22;5106;50.926;7.080;2022-10-17T17:21:25;19.20;82.80
10133;DHT22;5106;50.926;7.080;2022-10-17T17:23:54;19.20;83.00
10133;DHT22;5106;50.926;7.080;2022-10-17T17:26:23;19.10;83.10
10133;DHT22;5106;50.926;7.080;2022-10-17T17:28:49;19.10;83.20
10133;DHT22;5106;50.926;7.080;2022-10-17T17:31:20;19.00;83.30
10133;DHT22;5106;50.926;7.080;2022-10-17T17:33:47;19.00;83.40
10133;DHT22;5106;50.926;7.080;2022-10-17T17:36:17;19.00;83.50
10133;DHT22;5106;50.926;7.080;2022-10-17T17:38:44;19.00;83.50
10133;DHT22;5106;50.926;7.080;2022-10-17T17:41:15;18.90;83.70
10133;DHT22;5106;50.926;7.080;2022-10-17T17:43:42;18.90;83.80
10133;DHT22;5106;50.926;7.080;2022-10-17T17:46:08;18.80;84.00
10133;DHT22;5106;50.926;7.080;2022-10-17T17:48:36;18.80;84.10
10133;DHT22;5106;50.926;7.080;2022-10-17T17:51:07;18.70;84.30
10133;DHT22;5106;50.926;7.080;2022-10-17T17:53:34;18.70;84.30
10133;DHT22;5106;50.926;7.080;2022-10-17T17:56:10;18.60;84.40
10133;DHT22;5106;50.926;7.080;2022-10-17T17:58:39;18.60;84.50
10133;DHT22;5106;50.926;7.080;2022-10-17T18:01:16;18.60;84.50
10133;DHT22;5106;50.926;7.080;2022-10-17T18:03:45;18.50;84.50
10133;DHT22;5106;50.926;7.080;2022-10-17T18:06:10;18.40;84.50
10133;DHT22;5106;50.926;7.080;2022-10-17T18:08:36;18.40;84.70
10133;DHT22;5106;50.926;7.080;2022-10-17T18:11:02;18.40;84.70
10133;DHT22;5106;50.926;7.080;2022-10-17T18:13:28;18.30;84.70
10133;DHT22;5106;50.926;7.080;2022-10-17T18:15:59;18.30;84.70
10133;DHT22;5106;50.926;7.080;2022-10-17T18:18:25;18.30;84.80
10133;DHT22;5106;50.926;7.080;2022-10-17T18:20:52;18.20;84.80
10133;DHT22;5106;50.926;7.080;2022-10-17T18:23:19;18.10;84.80
10133;DHT22;5106;50.926;7.080;2022-10-17T18:25:59;18.10;84.80
10133;DHT22;5106;50.926;7.080;2022-10-17T18:28:27;18.10;84.80
10133;DHT22;5106;50.926;7.080;2022-10-17T18:30:53;18.10;84.90
10133;DHT22;5106;50.926;7.080;2022-10-17T18:33:19;18.10;84.90
10133;DHT22;5106;50.926;7.080;2022-10-17T18:35:45;18.10;84.90